Time;durP1;ratioP1;P1;durP2;ratioP2;P2;SDS_P1;SDS_P2;PMS_P1;PMS_P2;Temp;Humidity;BMP_temperature;BMP_pressure;BME280_temperature;BME280_humidity;BME280_pressure;Samples;Min_cycle;Max_cycle;Signal;HPM_P1;HPM_P2
2023/09/27 17:53:12;;;;;;;38.80;13.50;;;;;;;15.77;100.00;102486.89;103794;1282;61767;-50
2023/09/27 17:55:39;;;;;;;37.80;15.00;;;;;;;15.64;100.00;102275.04;104838;1269;71623;-51
2023/09/27 17:58:06;;;;;;;34.40;13.70;;;;;;;15.53;100.00;102026.72;105025;1269;65137;-51
2023/09/27 18:00:34;;;;;;;32.20;15.10;;;;;;;15.40;100.00;101774.17;105063;1264;72764;-56
2023/09/27 18:03:01;;;;;;;37.10;14.70;;;;;;;15.28;100.00;101587.45;105046;1269;61505;-52
2023/09/27 18:05:29;;;;;;;39.50;15.10;;;;;;;15.18;100.00;101471.35;104901;1269;61644;-54
2023/09/27 18:07:56;;;;;;;42.10;16.80;;;;;;;15.08;100.00;101386.20;104906;1269;73791;-52
2023/09/27 18:10:23;;;;;;;39.50;15.60;;;;;;;15.01;100.00;101330.89;104842;1269;65237;-50
2023/09/27 18:12:51;;;;;;;33.70;15.00;;;;;;;14.96;100.00;101297.83;104909;1267;72929;-51
2023/09/27 18:15:18;;;;;;;26.00;14.30;;;;;;;14.90;100.00;101302.13;104890;1265;62288;-50
2023/09/27 18:17:54;;;;;;;35.80;14.90;;;;;;;14.84;100.00;101341.03;104823;1265;60139;-49
2023/09/27 18:20:22;;;;;;;36.10;16.30;;;;;;;14.76;100.00;101403.39;104869;1270;73653;-51
2023/09/27 18:22:49;;;;;;;31.50;15.90;;;;;;;14.69;100.00;101487.94;104844;1269;64295;-50
2023/09/27 18:25:16;;;;;;;32.40;15.90;;;;;;;14.62;100.00;101581.17;104880;1267;73738;-50
2023/09/27 18:27:44;;;;;;;35.00;14.40;;;;;;;14.55;100.00;101658.76;104847;1279;61297;-51
2023/09/27 18:30:11;;;;;;;34.40;14.60;;;;;;;14.48;100.00;101725.54;104846;1266;61746;-50
2023/09/27 18:32:39;;;;;;;29.10;11.40;;;;;;;14.41;100.00;101761.42;104995;1267;73272;-51
2023/09/27 18:35:07;;;;;;;37.60;10.30;;;;;;;14.35;100.00;101745.70;104860;1269;63454;-50
2023/09/27 18:37:35;;;;;;;29.30;11.20;;;;;;;14.34;100.00;101685.28;104916;1266;71789;-50
2023/09/27 18:40:03;;;;;;;23.10;10.20;;;;;;;14.36;100.00;101614.41;104888;1270;60321;-50
2023/09/27 18:42:30;;;;;;;28.30;10.00;;;;;;;14.37;100.00;101523.41;104885;1270;59621;-50
2023/09/27 18:44:57;;;;;;;15.80;9.00;;;;;;;14.43;100.00;101431.10;105264;1267;73835;-49
2023/09/27 18:47:24;;;;;;;37.30;10.00;;;;;;;14.54;100.00;101353.61;105186;1268;65186;-51
2023/09/27 18:49:52;;;;;;;17.00;8.90;;;;;;;14.63;100.00;101289.84;105200;1266;72899;-50
2023/09/27 18:52:19;;;;;;;22.40;8.40;;;;;;;14.65;100.00;101259.73;104998;1266;62327;-51
2023/09/27 18:54:47;;;;;;;21.70;7.90;;;;;;;14.66;100.00;101247.91;105178;1262;61333;-51
2023/09/27 18:57:14;;;;;;;21.00;8.80;;;;;;;14.71;100.00;101249.05;105049;1264;73800;-50
2023/09/27 18:59:41;;;;;;;17.20;9.00;;;;;;;14.74;100.00;101258.52;105144;1267;65498;-51
2023/09/27 19:02:08;;;;;;;24.30;8.80;;;;;;;14.76;100.00;101268.57;105110;1267;72570;-49
2023/09/27 19:04:36;;;;;;;21.80;8.40;;;;;;;14.78;100.00;101280.17;105053;1267;59650;-51
2023/09/27 19:07:03;;;;;;;23.40;9.40;;;;;;;14.83;100.00;101293.98;105350;1263;61316;-51
2023/09/27 19:09:30;;;;;;;25.70;9.00;;;;;;;14.84;100.00;101304.70;105151;1266;74128;-50
2023/09/27 19:11:57;;;;;;;33.50;9.00;;;;;;;14.83;100.00;101305.61;105042;1265;65531;-51
2023/09/27 19:14:24;;;;;;;21.10;7.90;;;;;;;14.80;100.00;101310.17;105098;1266;72254;-51
2023/09/27 19:16:51;;;;;;;17.30;8.20;;;;;;;14.87;100.00;101310.02;105204;1266;60839;-51
2023/09/27 19:19:18;;;;;;;22.40;8.30;;;;;;;14.94;100.00;101321.16;105094;1264;60430;-51
2023/09/27 19:21:45;;;;;;;23.30;8.10;;;;;;;14.97;100.00;101332.58;105076;1267;74233;-51
2023/09/27 19:24:12;;;;;;;20.50;8.00;;;;;;;14.98;100.00;101347.84;105130;1264;64277;-51
2023/09/27 19:26:40;;;;;;;23.10;8.90;;;;;;;15.01;100.00;101360.98;105169;1265;71877;-51
2023/09/27 19:29:06;;;;;;;18.40;7.80;;;;;;;15.01;100.00;101368.80;105012;1268;60561;-51
2023/09/27 19:31:34;;;;;;;19.20;8.50;;;;;;;15.05;100.00;101383.32;105140;1268;60384;-50
2023/09/27 19:34:01;;;;;;;25.20;9.30;;;;;;;15.09;100.00;101395.21;105117;1267;73874;-51
2023/09/27 19:36:28;;;;;;;29.40;8.00;;;;;;;15.14;100.00;101414.57;105254;1263;64465;-50
2023/09/27 19:38:55;;;;;;;25.90;8.80;;;;;;;15.20;100.00;101438.95;105141;1259;73479;-52
2023/09/27 19:41:29;;;;;;;22.20;8.90;;;;;;;15.22;100.00;101459.05;105247;1264;60432;-50
2023/09/27 19:43:56;;;;;;;15.90;7.80;;;;;;;15.21;100.00;101471.79;105196;1260;60473;-51
2023/09/27 19:46:25;;;;;;;19.70;7.90;;;;;;;15.19;100.00;101479.13;105323;1263;74664;-52
2023/09/27 19:48:52;;;;;;;19.70;8.30;;;;;;;15.18;100.00;101484.56;105267;1263;64663;-52
2023/09/27 19:51:20;;;;;;;20.00;7.80;;;;;;;15.15;100.00;101481.83;105528;1260;71681;-51
2023/09/27 19:53:49;;;;;;;24.30;11.30;;;;;;;15.11;100.00;101483.48;105581;1260;60529;-51
2023/09/27 19:56:16;;;;;;;20.40;10.40;;;;;;;15.05;100.00;101480.30;105509;1262;60528;-51
2023/09/27 19:58:43;;;;;;;38.90;17.80;;;;;;;14.95;100.00;101467.98;105366;1262;73874;-50
2023/09/27 20:01:12;;;;;;;23.40;10.50;;;;;;;14.83;100.00;101452.77;105403;1262;64530;-50
2023/09/27 20:03:39;;;;;;;36.00;9.50;;;;;;;14.67;100.00;101403.73;105419;1260;72117;-51
2023/09/27 20:06:06;;;;;;;26.40;16.00;;;;;;;14.51;100.00;101372.60;105408;1261;62053;-51
2023/09/27 20:08:33;;;;;;;107.60;69.20;;;;;;;14.38;100.00;101333.80;105583;1263;60598;-51
2023/09/27 20:11:00;;;;;;;26.20;11.30;;;;;;;14.24;100.00;101298.82;106501;1257;73795;-53
2023/09/27 20:13:27;;;;;;;32.20;9.20;;;;;;;14.11;100.00;101278.44;105515;1271;64738;-52
2023/09/27 20:15:54;;;;;;;18.00;8.40;;;;;;;13.97;100.00;101286.86;106637;1262;72304;-53
2023/09/27 20:18:22;;;;;;;24.50;9.10;;;;;;;13.85;100.00;101303.23;105420;1261;60860;-50
2023/09/27 20:20:49;;;;;;;20.10;9.00;;;;;;;13.71;100.00;101335.20;105319;1262;60528;-50
2023/09/27 20:23:17;;;;;;;21.00;10.40;;;;;;;13.59;100.00;101372.54;105890;1257;73833;-50
2023/09/27 20:25:44;;;;;;;23.00;9.00;;;;;;;13.47;100.00;101418.66;106838;1257;64543;-50
2023/09/27 20:28:11;;;;;;;25.90;8.80;;;;;;;13.34;100.00;101469.27;106814;1261;70338;-51
2023/09/27 20:30:38;;;;;;;21.40;9.10;;;;;;;13.23;100.00;101530.08;106312;1263;61709;-51
2023/09/27 20:33:06;;;;;;;20.30;10.40;;;;;;;13.13;100.00;101588.95;107426;1258;60172;-49
2023/09/27 20:35:33;;;;;;;19.20;9.60;;;;;;;13.04;100.00;101638.27;105791;1261;73936;-51
2023/09/27 20:38:05;;;;;;;22.80;10.40;;;;;;;12.97;100.00;101681.80;107980;1260;64737;-50
2023/09/27 20:40:32;;;;;;;26.20;10.80;;;;;;;12.90;100.00;101714.98;105209;1261;72758;-50
2023/09/27 20:43:00;;;;;;;18.90;8.90;;;;;;;12.85;100.00;101732.84;105409;1263;62031;-49
2023/09/27 20:45:28;;;;;;;21.40;8.30;;;;;;;12.78;100.00;101746.59;105547;1261;60415;-50
2023/09/27 20:47:54;;;;;;;22.00;8.10;;;;;;;12.77;100.00;101807.75;105326;1261;73755;-51
2023/09/27 20:50:22;;;;;;;18.30;7.90;;;;;;;12.74;100.00;101900.93;105337;1259;64737;-51
2023/09/27 20:52:49;;;;;;;24.80;8.20;;;;;;;12.72;100.00;101984.27;105322;1262;72527;-50
2023/09/27 20:55:17;;;;;;;22.70;9.30;;;;;;;12.70;100.00;102047.48;105458;1269;60428;-49
2023/09/27 20:57:44;;;;;;;21.30;8.60;;;;;;;12.66;100.00;102097.21;105425;1258;60887;-49
2023/09/27 21:00:12;;;;;;;20.90;8.30;;;;;;;12.61;100.00;102128.38;105573;1260;73904;-49
2023/09/27 21:02:39;;;;;;;29.80;8.90;;;;;;;12.57;100.00;102159.02;105399;1257;64583;-50
2023/09/27 21:05:07;;;;;;;21.40;7.80;;;;;;;12.52;100.00;102173.58;105439;1258;73334;-50
2023/09/27 21:07:35;;;;;;;24.40;7.90;;;;;;;12.47;100.00;102197.28;105433;1257;61962;-50
2023/09/27 21:10:03;;;;;;;22.10;9.60;;;;;;;12.41;100.00;102214.42;105447;1262;60416;-50
2023/09/27 21:12:30;;;;;;;25.30;9.30;;;;;;;12.36;100.00;102226.87;105470;1260;72687;-51
2023/09/27 21:14:57;;;;;;;23.70;8.90;;;;;;;12.31;100.00;102239.16;105466;1264;64714;-50
2023/09/27 21:17:24;;;;;;;18.50;8.60;;;;;;;12.30;100.00;102246.60;105392;1262;72648;-50
2023/09/27 21:19:51;;;;;;;25.10;7.90;;;;;;;12.28;100.00;102248.15;105405;1257;62054;-50
2023/09/27 21:22:18;;;;;;;11.30;7.20;;;;;;;12.26;100.00;102252.46;105419;1261;60464;-49
2023/09/27 21:24:45;;;;;;;16.00;8.40;;;;;;;12.23;100.00;102252.97;105387;1261;73923;-50
2023/09/27 21:27:12;;;;;;;15.70;8.70;;;;;;;12.19;100.00;102256.06;105394;1261;64697;-50
2023/09/27 21:29:39;;;;;;;19.90;9.40;;;;;;;12.13;100.00;102253.81;105390;1261;72511;-50
2023/09/27 21:32:06;;;;;;;28.70;9.40;;;;;;;12.11;100.00;102255.17;105318;1264;61988;-50
2023/09/27 21:34:33;;;;;;;18.20;7.50;;;;;;;12.07;100.00;102252.41;105521;1263;60354;-50
2023/09/27 21:37:01;;;;;;;15.80;8.00;;;;;;;12.08;100.00;102247.20;105539;1261;73403;-50
2023/09/27 21:39:28;;;;;;;11.80;8.20;;;;;;;12.07;100.00;102240.98;105488;1262;63563;-51
2023/09/27 21:41:55;;;;;;;19.50;7.90;;;;;;;12.04;100.00;102228.86;105457;1263;72680;-52
2023/09/27 21:44:22;;;;;;;20.90;9.70;;;;;;;12.02;100.00;102225.91;105584;1263;60363;-50
2023/09/27 21:46:52;;;;;;;20.60;8.80;;;;;;;11.98;100.00;102214.78;105459;1263;60431;-51
2023/09/27 21:49:20;;;;;;;21.80;8.50;;;;;;;11.95;100.00;102208.37;105416;1261;73769;-51
2023/09/27 21:51:47;;;;;;;27.10;8.50;;;;;;;11.93;100.00;102196.95;105318;1263;64734;-51
2023/09/27 21:54:14;;;;;;;14.60;7.60;;;;;;;11.91;100.00;102189.34;105324;1257;72662;-51
2023/09/27 21:56:42;;;;;;;18.60;8.50;;;;;;;11.87;100.00;102184.64;105511;1259;60493;-51
2023/09/27 21:59:09;;;;;;;16.10;8.30;;;;;;;11.83;100.00;102182.20;105446;1257;60411;-51
2023/09/27 22:01:37;;;;;;;19.40;8.80;;;;;;;11.81;100.00;102178.73;105371;1263;73752;-51
2023/09/27 22:04:05;;;;;;;12.90;8.10;;;;;;;11.77;100.00;102172.16;105402;1262;63692;-51
2023/09/27 22:06:32;;;;;;;19.70;8.50;;;;;;;11.75;100.00;102165.23;105777;1261;71444;-51
2023/09/27 22:08:59;;;;;;;24.60;8.70;;;;;;;11.74;100.00;102162.63;105423;1257;61989;-50
2023/09/27 22:11:26;;;;;;;14.00;7.30;;;;;;;11.73;100.00;102152.77;105482;1262;60420;-51
2023/09/27 22:13:54;;;;;;;22.60;8.60;;;;;;;11.71;100.00;102150.15;105418;1264;73683;-50
2023/09/27 22:16:21;;;;;;;18.40;9.20;;;;;;;11.71;100.00;102136.33;105403;1264;64656;-52
2023/09/27 22:18:48;;;;;;;17.50;8.90;;;;;;;11.70;100.00;102128.02;105390;1257;72672;-51
2023/09/27 22:21:26;;;;;;;22.10;8.80;;;;;;;11.68;100.00;102120.05;105447;1257;61810;-51
2023/09/27 22:24:07;;;;;;;20.90;7.50;;;;;;;11.67;100.00;102111.76;105509;1264;60364;-50
2023/09/27 22:26:34;;;;;;;16.70;7.30;;;;;;;11.66;100.00;102097.57;105521;1260;73781;-49
2023/09/27 22:29:01;;;;;;;13.60;7.70;;;;;;;11.64;100.00;102092.38;105640;1261;64857;-50
2023/09/27 22:31:35;;;;;;;17.70;8.80;;;;;;;11.61;100.00;102085.79;105531;1258;72653;-51
2023/09/27 22:34:16;;;;;;;24.30;9.20;;;;;;;11.57;100.00;102080.08;105456;1262;62303;-52
2023/09/27 22:36:46;;;;;;;22.50;8.20;;;;;;;11.55;100.00;102072.46;105408;1257;60341;-51
2023/09/27 22:39:16;;;;;;;17.10;7.40;;;;;;;11.52;100.00;102068.14;105455;1263;73658;-50
2023/09/27 22:41:48;;;;;;;13.50;8.00;;;;;;;11.48;100.00;102064.14;105468;1263;63525;-49
2023/09/27 22:44:21;;;;;;;13.80;8.20;;;;;;;11.44;100.00;102065.17;105372;1261;71554;-50
2023/09/27 22:46:52;;;;;;;13.50;8.80;;;;;;;11.42;100.00;102057.91;105544;1257;60497;-50
2023/09/27 22:49:21;;;;;;;23.60;8.90;;;;;;;11.41;100.00;102053.75;105528;1258;60455;-51
2023/09/27 22:51:49;;;;;;;18.00;9.40;;;;;;;11.40;100.00;102042.34;105432;1264;73590;-51
2023/09/27 22:54:17;;;;;;;25.40;8.60;;;;;;;11.39;100.00;102038.53;105304;1264;64666;-51
2023/09/27 22:56:45;;;;;;;12.10;8.00;;;;;;;11.37;100.00;102032.14;105380;1263;71515;-53
2023/09/27 22:59:12;;;;;;;16.00;7.30;;;;;;;11.33;100.00;102029.87;105470;1263;60614;-52
2023/09/27 23:01:43;;;;;;;12.40;7.50;;;;;;;11.30;100.00;102027.45;105426;1264;60374;-50
2023/09/27 23:04:14;;;;;;;15.60;8.90;;;;;;;11.28;100.00;102024.84;105577;1263;72950;-53
2023/09/27 23:07:00;;;;;;;23.00;9.40;;;;;;;11.26;100.00;102014.48;105397;1262;64585;-53
2023/09/27 23:09:33;;;;;;;;;;;;;;;11.24;100.00;102014.80;105396;1263;72700;-50
2023/09/27 23:12:16;;;;;;;16.10;8.10;;;;;;;11.22;100.00;102012.71;105417;1263;62007;-52
2023/09/27 23:17:58;;;;;;;18.20;7.40;;;;;;;11.18;100.00;102004.92;105437;1264;73848;-52
2023/09/27 23:20:27;;;;;;;18.70;9.50;;;;;;;11.16;100.00;102001.81;105454;1263;64644;-51
2023/09/27 23:22:57;;;;;;;19.00;9.70;;;;;;;11.13;100.00;102003.36;105417;1259;72671;-51
2023/09/27 23:25:38;;;;;;;22.10;9.30;;;;;;;11.11;100.00;102003.00;105510;1259;61723;-53
2023/09/27 23:28:06;;;;;;;20.50;8.20;;;;;;;11.07;100.00;102008.52;105460;1257;60467;-52
2023/09/27 23:30:33;;;;;;;19.00;8.00;;;;;;;11.02;100.00;102012.65;105467;1263;73907;-50
2023/09/27 23:33:00;;;;;;;27.50;9.10;;;;;;;10.98;100.00;102013.13;105545;1262;64565;-51
2023/09/27 23:35:30;;;;;;;17.60;9.60;;;;;;;10.93;100.00;102012.95;105449;1257;72621;-50
2023/09/27 23:38:09;;;;;;;19.50;9.60;;;;;;;10.87;100.00;102017.23;105489;1263;62003;-51
2023/09/27 23:40:41;;;;;;;14.70;8.10;;;;;;;10.81;100.00;102021.00;105614;1257;60432;-51
2023/09/27 23:43:09;;;;;;;25.70;8.80;;;;;;;10.76;100.00;102025.13;105452;1262;72898;-51
2023/09/27 23:45:37;;;;;;;17.60;8.80;;;;;;;10.71;100.00;102028.36;105522;1262;64616;-51
2023/09/27 23:48:10;;;;;;;17.30;9.50;;;;;;;10.65;100.00;102033.86;105465;1258;72535;-51
2023/09/27 23:50:37;;;;;;;21.80;9.50;;;;;;;10.59;100.00;102038.65;105442;1262;60444;-51
2023/09/27 23:53:05;;;;;;;18.60;9.50;;;;;;;10.55;100.00;102046.91;105354;1264;60491;-50
2023/09/27 23:55:40;;;;;;;11.90;8.40;;;;;;;10.52;100.00;102045.85;105416;1262;73791;-50
2023/09/27 23:58:12;;;;;;;21.70;8.90;;;;;;;10.45;100.00;102046.83;105377;1261;64673;-50
